createdAt,value
2023-03-04T00:01:12.673Z,3.50
2023-03-04T00:03:42.089Z,3.50
2023-03-04T00:06:11.601Z,3.70
2023-03-04T00:08:41.105Z,3.70
2023-03-04T00:11:10.534Z,3.70
2023-03-04T00:13:39.957Z,3.80
2023-03-04T00:16:09.757Z,3.70
2023-03-04T00:18:39.297Z,3.70
2023-03-04T00:21:08.974Z,3.80
2023-03-04T00:23:38.852Z,3.70
2023-03-04T00:26:10.159Z,3.70
2023-03-04T00:28:42.124Z,3.70
2023-03-04T00:31:13.390Z,3.60
2023-03-04T00:33:45.005Z,3.60
2023-03-04T00:36:14.439Z,3.60
2023-03-04T00:38:43.933Z,3.50
2023-03-04T00:41:14.382Z,3.20
2023-03-04T00:43:43.784Z,3.40
2023-03-04T00:46:14.276Z,3.50
2023-03-04T00:48:43.752Z,3.50
2023-03-04T00:51:13.264Z,3.50
2023-03-04T00:53:43.373Z,3.50
2023-03-04T00:56:13.064Z,3.40
2023-03-04T00:58:42.549Z,3.40
2023-03-04T01:01:12.556Z,3.40
2023-03-04T01:03:43.069Z,3.40
2023-03-04T01:06:12.722Z,3.40
2023-03-04T01:08:42.222Z,3.40
2023-03-04T01:11:11.897Z,3.30
2023-03-04T01:13:42.541Z,3.30
2023-03-04T01:16:13.170Z,3.30
2023-03-04T01:18:42.830Z,3.20
2023-03-04T01:21:12.253Z,3.30
2023-03-04T01:23:41.741Z,3.20
2023-03-04T01:26:11.276Z,3.30
2023-03-04T01:28:40.705Z,3.20
2023-03-04T01:31:10.286Z,3.10
2023-03-04T01:33:39.973Z,3.10
2023-03-04T01:36:09.484Z,3.10
2023-03-04T01:38:39.016Z,3.10
2023-03-04T01:41:11.122Z,3.10
2023-03-04T01:43:41.157Z,3.10
2023-03-04T01:46:15.391Z,3.10
2023-03-04T01:48:45.699Z,3.10
2023-03-04T01:51:19.937Z,3.00
2023-03-04T01:53:53.559Z,3.00
2023-03-04T01:56:38.073Z,2.90
2023-03-04T01:59:26.098Z,3.00
2023-03-04T02:01:58.671Z,3.00
2023-03-04T02:04:31.468Z,3.00
2023-03-04T02:07:01.790Z,3.00
2023-03-04T02:09:34.460Z,3.00
2023-03-04T02:12:05.729Z,2.80
2023-03-04T02:14:35.869Z,2.90
2023-03-04T02:17:08.111Z,2.90
2023-03-04T02:19:40.752Z,2.90
2023-03-04T02:22:10.552Z,2.90
2023-03-04T02:24:46.524Z,2.80
2023-03-04T02:27:16.176Z,2.80
2023-03-04T02:29:45.733Z,2.90
2023-03-04T02:32:18.158Z,2.80
2023-03-04T02:34:50.654Z,2.50
2023-03-04T02:37:22.611Z,2.30
2023-03-04T02:39:53.806Z,2.60
2023-03-04T02:42:23.936Z,2.50
2023-03-04T02:45:02.190Z,2.30
2023-03-04T02:47:31.730Z,2.50
2023-03-04T02:50:01.229Z,2.40
2023-03-04T02:52:30.734Z,2.60
2023-03-04T02:55:00.323Z,2.30
2023-03-04T02:57:29.902Z,2.00
2023-03-04T02:59:59.419Z,2.00
2023-03-04T03:02:30.007Z,2.20
2023-03-04T03:04:59.626Z,2.40
2023-03-04T03:07:29.211Z,2.40
2023-03-04T03:09:58.791Z,2.50
2023-03-04T03:12:28.687Z,2.30
2023-03-04T03:14:58.110Z,2.00
2023-03-04T03:17:28.041Z,2.10
2023-03-04T03:19:57.466Z,2.30
2023-03-04T03:22:28.363Z,2.10
2023-03-04T03:25:39.573Z,1.50
2023-03-04T03:28:09.078Z,1.60
2023-03-04T03:30:40.629Z,2.00
2023-03-04T03:33:10.639Z,2.10
2023-03-04T03:35:41.124Z,2.20
2023-03-04T03:38:10.572Z,2.20
2023-03-04T03:40:40.130Z,2.20
2023-03-04T03:43:10.801Z,2.30
2023-03-04T03:45:40.304Z,2.30
2023-03-04T03:48:09.710Z,2.20
2023-03-04T03:50:39.200Z,2.10
2023-03-04T03:53:08.840Z,1.90
2023-03-04T03:55:39.147Z,1.70
2023-03-04T03:58:08.594Z,1.10
2023-03-04T04:00:38.136Z,1.10
2023-03-04T04:03:07.663Z,1.10
2023-03-04T04:05:37.569Z,1.10
2023-03-04T04:08:07.067Z,1.20
2023-03-04T04:10:36.559Z,1.20
2023-03-04T04:13:06.050Z,1.30
2023-03-04T04:15:36.718Z,1.30
2023-03-04T04:18:08.330Z,1.40
2023-03-04T04:20:38.332Z,1.50
2023-03-04T04:23:07.760Z,1.70
2023-03-04T04:25:37.253Z,1.80
2023-03-04T04:28:06.696Z,1.80
2023-03-04T04:30:36.717Z,1.80
2023-03-04T04:33:06.855Z,1.80
2023-03-04T04:35:39.196Z,1.90
2023-03-04T04:38:09.859Z,1.90
2023-03-04T04:40:39.274Z,1.90
2023-03-04T04:43:08.706Z,1.90
2023-03-04T04:45:38.237Z,1.90
2023-03-04T04:48:09.123Z,1.90
2023-03-04T04:50:38.580Z,1.80
2023-03-04T04:53:08.827Z,1.70
2023-03-04T04:55:38.246Z,1.60
2023-03-04T04:58:09.555Z,1.60
2023-03-04T05:00:38.978Z,1.40
2023-03-04T05:03:08.509Z,1.10
2023-03-04T05:05:39.276Z,0.90
2023-03-04T05:08:08.753Z,0.70
2023-03-04T05:10:38.343Z,0.80
2023-03-04T05:13:07.964Z,1.00
2023-03-04T05:15:39.973Z,1.20
2023-03-04T05:18:09.435Z,1.40
2023-03-04T05:20:39.158Z,1.60
2023-03-04T05:23:08.596Z,1.60
2023-03-04T05:25:39.256Z,1.60
2023-03-04T05:28:10.318Z,1.70
2023-03-04T05:30:42.074Z,1.70
2023-03-04T05:33:13.420Z,1.80
2023-03-04T05:35:44.134Z,1.80
2023-03-04T05:38:16.881Z,1.30
2023-03-04T05:40:47.913Z,1.20
2023-03-04T05:43:18.277Z,1.20
2023-03-04T05:45:49.922Z,1.20
2023-03-04T05:48:19.490Z,1.10
2023-03-04T05:50:50.523Z,1.20
2023-03-04T05:53:20.068Z,1.50
2023-03-04T05:55:49.760Z,1.70
2023-03-04T05:58:21.382Z,1.60
2023-03-04T06:00:51.326Z,1.40
2023-03-04T06:03:24.118Z,1.30
2023-03-04T06:05:53.952Z,1.40
2023-03-04T06:08:23.881Z,1.40
2023-03-04T06:10:56.050Z,1.50
2023-03-04T06:13:26.522Z,1.60
2023-03-04T06:16:00.907Z,1.70
2023-03-04T06:18:32.173Z,1.70
2023-03-04T06:21:03.848Z,1.90
2023-03-04T06:23:33.832Z,2.00
2023-03-04T06:26:04.722Z,1.90
2023-03-04T06:28:34.201Z,1.80
2023-03-04T06:31:04.019Z,1.80
2023-03-04T06:33:33.672Z,1.60
2023-03-04T06:36:03.355Z,1.60
2023-03-04T06:38:32.947Z,1.80
2023-03-04T06:41:12.313Z,1.80
2023-03-04T06:43:42.794Z,1.70
2023-03-04T06:46:12.394Z,1.70
2023-03-04T06:48:42.444Z,1.80
2023-03-04T06:51:13.061Z,1.80
2023-03-04T06:53:43.438Z,2.00
2023-03-04T06:56:18.727Z,1.90
2023-03-04T06:58:48.779Z,1.90
2023-03-04T07:01:21.571Z,1.90
2023-03-04T07:03:51.507Z,1.80
2023-03-04T07:06:24.258Z,2.00
2023-03-04T07:08:54.731Z,2.00
2023-03-04T07:11:24.939Z,2.00
2023-03-04T07:13:54.344Z,2.10
2023-03-04T07:16:25.665Z,2.10
2023-03-04T07:18:55.278Z,2.20
2023-03-04T07:21:24.783Z,2.30
2023-03-04T07:23:54.691Z,2.20
2023-03-04T07:26:24.262Z,2.40
2023-03-04T07:28:54.780Z,2.50
2023-03-04T07:31:30.283Z,2.60
2023-03-04T07:34:03.403Z,2.60
2023-03-04T07:36:35.243Z,2.70
2023-03-04T07:39:06.257Z,2.70
2023-03-04T07:41:37.601Z,2.60
2023-03-04T07:44:09.007Z,2.80
2023-03-04T07:46:39.142Z,2.70
2023-03-04T07:49:10.024Z,2.80
2023-03-04T07:51:39.516Z,2.80
2023-03-04T07:54:09.168Z,2.80
2023-03-04T07:56:38.743Z,2.90
2023-03-04T07:59:09.996Z,2.90
2023-03-04T08:01:40.814Z,2.90
2023-03-04T08:04:10.308Z,2.90
2023-03-04T08:06:42.705Z,3.00
2023-03-04T08:09:14.208Z,3.10
2023-03-04T08:11:44.771Z,3.10
2023-03-04T08:14:15.843Z,3.20
2023-03-04T08:16:45.256Z,3.30
2023-03-04T08:19:14.759Z,3.30
2023-03-04T08:21:44.669Z,3.40
2023-03-04T08:24:14.444Z,3.50
2023-03-04T08:26:48.049Z,3.60
2023-03-04T08:29:23.526Z,3.70
2023-03-04T08:31:56.739Z,3.80
2023-03-04T08:34:29.124Z,3.80
2023-03-04T08:36:58.538Z,3.90
2023-03-04T08:39:28.153Z,4.00
2023-03-04T08:41:57.586Z,4.00
2023-03-04T08:44:27.103Z,4.10
2023-03-04T08:46:56.625Z,4.20
2023-03-04T08:49:26.051Z,4.30
2023-03-04T08:51:56.228Z,4.40
2023-03-04T08:54:25.957Z,4.50
2023-03-04T08:56:55.386Z,4.60
2023-03-04T08:59:25.190Z,4.80
2023-03-04T09:01:54.691Z,4.80
2023-03-04T09:04:24.883Z,4.90
2023-03-04T09:06:54.298Z,5.00
2023-03-04T09:09:24.765Z,5.10
2023-03-04T09:11:54.359Z,5.20
2023-03-04T09:14:23.887Z,5.20
2023-03-04T09:16:53.412Z,5.40
2023-03-04T09:19:23.012Z,5.50
2023-03-04T09:21:52.440Z,5.60
2023-03-04T09:24:21.937Z,5.70
2023-03-04T09:26:56.252Z,5.90
2023-03-04T09:29:25.703Z,5.90
2023-03-04T09:31:55.257Z,6.00
2023-03-04T09:34:24.974Z,6.10
2023-03-04T09:36:54.741Z,6.20
2023-03-04T09:39:24.785Z,6.30
2023-03-04T09:41:57.516Z,6.50
2023-03-04T09:44:34.802Z,6.80
2023-03-04T09:47:13.201Z,7.10
2023-03-04T09:49:46.000Z,7.20
2023-03-04T09:52:30.222Z,7.40
2023-03-04T09:55:08.914Z,7.50
2023-03-04T09:57:49.880Z,7.80
2023-03-04T10:00:28.395Z,8.20
2023-03-04T10:03:11.045Z,8.40
2023-03-04T10:06:08.172Z,8.50
2023-03-04T10:08:55.986Z,8.50
2023-03-04T10:11:40.336Z,8.50
2023-03-04T10:14:18.363Z,8.60
2023-03-04T10:16:53.840Z,8.70
2023-03-04T10:19:31.943Z,8.70
2023-03-04T10:22:02.001Z,8.70
2023-03-04T10:24:32.278Z,8.70
2023-03-04T10:27:05.307Z,8.70
2023-03-04T10:29:34.881Z,8.80
2023-03-04T10:32:04.369Z,8.80
2023-03-04T10:34:34.060Z,9.00
2023-03-04T10:37:07.869Z,8.90
2023-03-04T10:39:46.492Z,9.30
2023-03-04T10:42:20.827Z,9.40
2023-03-04T10:44:55.273Z,9.50
2023-03-04T10:47:27.713Z,9.70
2023-03-04T10:50:07.644Z,9.70
2023-03-04T10:52:42.895Z,10.00
2023-03-04T10:55:18.436Z,10.10
2023-03-04T10:57:50.670Z,10.10
2023-03-04T11:00:26.945Z,10.40
2023-03-04T11:03:16.094Z,11.10
2023-03-04T11:05:45.822Z,11.10
2023-03-04T11:08:24.168Z,11.10
2023-03-04T11:10:54.464Z,11.30
2023-03-04T11:13:27.730Z,11.00
2023-03-04T11:16:00.450Z,10.70
2023-03-04T11:18:37.248Z,10.80
2023-03-04T11:21:10.859Z,11.70
2023-03-04T11:24:01.522Z,11.70
2023-03-04T11:26:43.408Z,12.20
2023-03-04T11:29:24.281Z,11.50
2023-03-04T11:31:57.339Z,11.30
2023-03-04T11:34:35.595Z,11.80
2023-03-04T11:37:17.028Z,11.90
2023-03-04T11:40:05.230Z,11.50
2023-03-04T11:42:41.052Z,11.50
2023-03-04T11:45:28.738Z,11.30
2023-03-04T11:47:53.815Z,10.80
2023-03-04T11:50:32.546Z,10.60
2023-03-04T11:53:08.848Z,10.80
2023-03-04T11:55:44.391Z,11.00
2023-03-04T11:58:37.792Z,11.00
2023-03-04T12:01:08.546Z,11.10
2023-03-04T12:04:12.866Z,10.80
2023-03-04T12:06:58.137Z,10.70
2023-03-04T12:09:42.766Z,11.40
2023-03-04T12:12:33.308Z,12.50
2023-03-04T12:15:22.886Z,12.80
2023-03-04T12:18:07.171Z,11.80
2023-03-04T12:20:46.069Z,11.30
2023-03-04T12:23:37.510Z,11.00
2023-03-04T12:26:16.999Z,10.90
2023-03-04T12:28:52.336Z,11.60
2023-03-04T12:31:40.131Z,12.60
2023-03-04T12:34:34.751Z,13.20
2023-03-04T12:37:19.144Z,12.50
2023-03-04T12:40:05.019Z,12.10
2023-03-04T12:42:50.186Z,11.50
2023-03-04T12:45:25.592Z,11.30
2023-03-04T12:48:04.083Z,11.50
2023-03-04T12:50:39.249Z,11.90
2023-03-04T12:53:24.101Z,12.30
2023-03-04T12:55:56.309Z,12.90
2023-03-04T12:58:29.004Z,13.50
2023-03-04T13:01:19.253Z,13.60
2023-03-04T13:04:00.864Z,13.10
2023-03-04T13:06:48.367Z,12.50
2023-03-04T13:09:21.675Z,13.10
2023-03-04T13:11:54.749Z,13.50
2023-03-04T13:14:28.481Z,13.80
2023-03-04T13:17:02.231Z,13.10
2023-03-04T13:20:09.058Z,12.40
2023-03-04T13:22:44.640Z,12.20
2023-03-04T13:25:45.230Z,12.10
2023-03-04T13:28:20.424Z,12.20
2023-03-04T13:30:59.604Z,12.80
2023-03-04T13:33:37.865Z,13.10
2023-03-04T13:36:12.281Z,12.70
2023-03-04T13:38:41.785Z,12.00
2023-03-04T13:41:27.025Z,11.90
2023-03-04T13:43:58.400Z,11.80
2023-03-04T13:46:30.185Z,11.70
2023-03-04T13:49:02.721Z,11.50
2023-03-04T13:51:47.442Z,11.10
2023-03-04T13:54:24.307Z,11.10
2023-03-04T13:57:22.626Z,11.10
2023-03-04T13:59:59.169Z,11.20
2023-03-04T14:02:32.501Z,11.20
2023-03-04T14:05:03.479Z,11.20
2023-03-04T14:07:37.038Z,11.20
2023-03-04T14:10:16.021Z,11.30
2023-03-04T14:12:48.590Z,11.30
2023-03-04T14:15:21.111Z,11.30
2023-03-04T14:17:52.331Z,11.20
2023-03-04T14:20:36.361Z,11.60
2023-03-04T14:23:29.899Z,12.00
2023-03-04T14:26:03.084Z,12.00
2023-03-04T14:28:33.090Z,11.80
2023-03-04T14:31:02.647Z,12.00
2023-03-04T14:33:33.211Z,12.50
2023-03-04T14:36:04.578Z,12.40
2023-03-04T14:38:42.185Z,12.20
2023-03-04T14:41:20.146Z,12.10
2023-03-04T14:44:11.130Z,12.20
2023-03-04T14:47:00.551Z,12.00
2023-03-04T14:49:17.728Z,12.10
2023-03-04T14:51:52.750Z,12.40
2023-03-04T14:54:32.276Z,12.40
2023-03-04T14:57:04.501Z,12.00
2023-03-04T14:59:37.747Z,11.80
2023-03-04T15:02:22.290Z,11.60
2023-03-04T15:04:52.628Z,11.50
2023-03-04T15:07:25.113Z,11.60
2023-03-04T15:09:56.609Z,11.60
2023-03-04T15:12:29.256Z,11.50
2023-03-04T15:15:01.613Z,11.50
2023-03-04T15:17:40.551Z,11.50
2023-03-04T15:20:13.192Z,11.50
2023-03-04T15:22:51.468Z,11.50
2023-03-04T15:25:21.486Z,11.30
2023-03-04T15:27:54.015Z,11.20
2023-03-04T15:30:27.987Z,11.30
2023-03-04T15:33:00.142Z,11.20
2023-03-04T15:35:32.222Z,11.30
2023-03-04T15:38:02.182Z,11.20
2023-03-04T15:40:39.959Z,11.10
2023-03-04T15:43:10.940Z,11.00
2023-03-04T15:45:41.574Z,10.90
2023-03-04T15:48:14.257Z,10.80
2023-03-04T15:50:48.743Z,10.80
2023-03-04T15:53:39.664Z,10.70
2023-03-04T15:56:15.262Z,10.80
2023-03-04T15:58:46.559Z,10.80
2023-03-04T16:01:19.040Z,10.70
2023-03-04T16:03:48.607Z,10.70
2023-03-04T16:06:21.501Z,10.70
2023-03-04T16:08:53.077Z,10.60
2023-03-04T16:11:25.696Z,10.50
2023-03-04T16:13:56.245Z,10.50
2023-03-04T16:16:25.706Z,10.50
2023-03-04T16:18:55.185Z,10.50
2023-03-04T16:21:24.778Z,10.40
2023-03-04T16:23:55.444Z,10.40
2023-03-04T16:26:26.859Z,10.40
2023-03-04T16:28:56.461Z,10.30
2023-03-04T16:31:26.123Z,10.30
2023-03-04T16:33:55.597Z,10.30
2023-03-04T16:36:28.494Z,10.30
2023-03-04T16:39:02.161Z,10.30
2023-03-04T16:41:32.988Z,10.20
2023-03-04T16:44:03.062Z,10.20
2023-03-04T16:46:32.519Z,10.20
2023-03-04T16:49:02.892Z,10.20
2023-03-04T16:51:35.391Z,10.10
2023-03-04T16:54:05.398Z,10.10
2023-03-04T16:56:34.816Z,10.00
2023-03-04T16:59:05.125Z,10.00
2023-03-04T17:01:37.043Z,10.00
2023-03-04T17:04:06.511Z,9.90
2023-03-04T17:06:38.086Z,9.90
2023-03-04T17:09:10.580Z,9.90
2023-03-04T17:11:40.203Z,9.90
2023-03-04T17:14:09.525Z,9.80
2023-03-04T17:16:38.973Z,9.80
2023-03-04T17:19:08.467Z,9.80
2023-03-04T17:21:37.898Z,9.70
2023-03-04T17:24:11.184Z,9.70
2023-03-04T17:26:42.128Z,9.70
2023-03-04T17:29:11.800Z,9.70
2023-03-04T17:31:43.246Z,9.70
2023-03-04T17:34:13.794Z,9.60
2023-03-04T17:36:48.579Z,9.60
2023-03-04T17:39:19.997Z,9.60
2023-03-04T17:41:51.684Z,9.50
2023-03-04T17:44:21.874Z,9.50
2023-03-04T17:46:51.420Z,9.50
2023-03-04T17:49:20.878Z,9.40
2023-03-04T17:51:52.033Z,9.30
2023-03-04T17:54:21.522Z,9.20
2023-03-04T17:56:50.950Z,9.10
2023-03-04T17:59:41.230Z,9.00
2023-03-04T18:02:13.749Z,8.90
2023-03-04T18:04:46.116Z,8.80
2023-03-04T18:07:16.023Z,8.70
2023-03-04T18:09:47.439Z,8.60
2023-03-04T18:12:16.883Z,8.50
2023-03-04T18:14:46.488Z,8.40
2023-03-04T18:17:16.787Z,8.40
2023-03-04T18:19:46.214Z,8.30
2023-03-04T18:22:15.717Z,8.30
2023-03-04T18:24:45.596Z,8.20
2023-03-04T18:27:15.037Z,8.20
2023-03-04T18:29:44.613Z,8.20
2023-03-04T18:32:15.783Z,8.10
2023-03-04T18:34:45.257Z,8.10
2023-03-04T18:37:14.760Z,8.10
2023-03-04T18:39:44.319Z,8.00
2023-03-04T18:42:13.752Z,7.90
2023-03-04T18:44:45.873Z,7.70
2023-03-04T18:47:15.776Z,7.60
2023-03-04T18:49:46.657Z,7.50
2023-03-04T18:52:16.211Z,7.40
2023-03-04T18:54:45.823Z,7.30
2023-03-04T18:57:17.753Z,7.30
2023-03-04T18:59:53.247Z,7.30
2023-03-04T19:02:43.636Z,7.20
2023-03-04T19:05:16.192Z,7.10
2023-03-04T19:07:51.577Z,7.10
2023-03-04T19:10:27.410Z,7.20
2023-03-04T19:12:58.547Z,7.10
2023-03-04T19:15:28.875Z,7.00
2023-03-04T19:17:58.372Z,7.00
2023-03-04T19:20:27.816Z,7.00
2023-03-04T19:22:57.380Z,7.00
2023-03-04T19:25:26.866Z,7.10
2023-03-04T19:27:56.482Z,7.10
2023-03-04T19:30:46.675Z,7.10
2023-03-04T19:33:16.168Z,7.00
2023-03-04T19:35:47.608Z,6.90
2023-03-04T19:38:17.092Z,6.80
2023-03-04T19:40:46.986Z,6.80
2023-03-04T19:43:16.573Z,6.70
2023-03-04T19:45:55.320Z,6.70
2023-03-04T19:48:25.506Z,6.60
2023-03-04T19:50:55.207Z,6.50
2023-03-04T19:53:24.673Z,6.40
2023-03-04T19:55:54.177Z,6.50
2023-03-04T19:58:24.413Z,6.50
2023-03-04T20:00:56.312Z,6.50
2023-03-04T20:03:26.369Z,6.40
2023-03-04T20:06:07.420Z,6.40
2023-03-04T20:08:38.576Z,6.30
2023-03-04T20:11:13.840Z,6.40
2023-03-04T20:13:43.471Z,6.40
2023-03-04T20:16:15.455Z,6.30
2023-03-04T20:18:45.289Z,6.30
2023-03-04T20:21:14.792Z,6.20
2023-03-04T20:23:44.304Z,6.10
2023-03-04T20:26:14.865Z,6.10
2023-03-04T20:28:47.301Z,6.00
2023-03-04T20:31:26.434Z,6.00
2023-03-04T20:33:58.037Z,6.00
2023-03-04T20:36:30.475Z,5.90
2023-03-04T20:39:03.618Z,5.80
2023-03-04T20:41:34.461Z,5.90
2023-03-04T20:44:06.074Z,6.00
2023-03-04T20:46:42.851Z,6.00
2023-03-04T20:49:16.149Z,6.00
2023-03-04T20:51:47.301Z,6.00
2023-03-04T20:54:16.791Z,5.90
2023-03-04T20:56:47.870Z,6.00
2023-03-04T20:59:17.509Z,5.90
2023-03-04T21:01:51.580Z,5.90
2023-03-04T21:04:23.467Z,5.80
2023-03-04T21:06:55.076Z,5.80
2023-03-04T21:09:26.391Z,5.80
2023-03-04T21:11:56.258Z,5.70
2023-03-04T21:14:29.112Z,5.60
2023-03-04T21:17:02.338Z,5.70
2023-03-04T21:19:34.376Z,5.80
2023-03-04T21:22:06.156Z,5.90
2023-03-04T21:24:38.795Z,5.80
2023-03-04T21:27:09.276Z,5.70
2023-03-04T21:29:38.714Z,5.70
2023-03-04T21:32:24.598Z,5.70
2023-03-04T21:34:52.911Z,5.70
2023-03-04T21:37:24.012Z,5.70
2023-03-04T21:39:55.489Z,5.60
2023-03-04T21:42:25.103Z,5.50
2023-03-04T21:44:55.743Z,5.40
2023-03-04T21:47:25.240Z,5.40
2023-03-04T21:49:54.797Z,5.30
2023-03-04T21:52:25.305Z,5.30
2023-03-04T21:54:56.708Z,5.40
2023-03-04T21:57:26.137Z,5.40
2023-03-04T21:59:55.578Z,5.50
2023-03-04T22:02:25.196Z,5.50
2023-03-04T22:04:54.716Z,5.50
2023-03-04T22:07:25.456Z,5.50
2023-03-04T22:09:55.623Z,5.50
2023-03-04T22:12:25.138Z,5.40
2023-03-04T22:14:55.314Z,5.40
2023-03-04T22:17:24.792Z,5.40
2023-03-04T22:19:55.946Z,5.40
2023-03-04T22:22:25.379Z,5.40
2023-03-04T22:24:57.808Z,5.40
2023-03-04T22:27:27.550Z,5.30
2023-03-04T22:29:58.627Z,5.20
2023-03-04T22:32:28.548Z,5.30
2023-03-04T22:34:58.600Z,5.30
2023-03-04T22:37:28.144Z,5.20
2023-03-04T22:39:59.557Z,5.30
2023-03-04T22:42:29.353Z,5.20
2023-03-04T22:44:59.401Z,5.10
2023-03-04T22:47:28.964Z,5.20
2023-03-04T22:49:58.409Z,5.20
2023-03-04T22:52:28.914Z,5.20
2023-03-04T22:54:58.352Z,5.20
2023-03-04T22:57:27.777Z,5.10
2023-03-04T22:59:57.745Z,5.10
2023-03-04T23:02:27.244Z,5.00
2023-03-04T23:04:58.273Z,5.00
2023-03-04T23:07:27.683Z,5.00
2023-03-04T23:09:58.727Z,5.00
2023-03-04T23:12:28.243Z,5.00
2023-03-04T23:14:58.612Z,5.00
2023-03-04T23:17:28.268Z,5.00
2023-03-04T23:19:57.719Z,5.00
2023-03-04T23:22:27.692Z,5.00
2023-03-04T23:24:57.699Z,5.00
2023-03-04T23:27:27.357Z,4.90
2023-03-04T23:29:56.853Z,4.90
2023-03-04T23:32:26.390Z,4.90
2023-03-04T23:34:56.483Z,4.90
2023-03-04T23:37:25.984Z,4.90
2023-03-04T23:39:55.480Z,4.80
2023-03-04T23:42:25.666Z,4.80
2023-03-04T23:44:55.690Z,4.80
2023-03-04T23:47:25.243Z,4.80
2023-03-04T23:49:54.794Z,4.80
2023-03-04T23:52:24.222Z,4.70
2023-03-04T23:54:53.716Z,4.70
2023-03-04T23:57:23.296Z,4.60
2023-03-04T23:59:52.730Z,4.50
